BDV weather

Moba Airport
Moba, Katanga Province, Congo (Kinshasa)

Public forecast

Using degrees Celsius for public forecast. Weather courtesy of forecast.io.

Closest aviation weather report (METAR) to Moba Airport

Report is more than 6 hours old.

Closest report is Mpanda Airport, 88.6 nm (164.0 km) ENE. Retrieved 2020/06/27 04:00 UTC (11 days ago):

HTMP 270400Z 00000KT 9999 SKC 14/13 Q1020

Closest aviation forecast (TAF) to Moba Airport

Forecast is more than 12 hours old.

Closest forecast is Tabora Airport, 217.8 nm (403.4 km) ENE. Retrieved 2020-06-28 00:51 UTC (10 days ago):

TAF HTTB 272300Z 2800/2824 14010KT 9999 FEW024